Time;durP1;ratioP1;P1;durP2;ratioP2;P2;SDS_P1;SDS_P2;PMS_P1;PMS_P2;Temp;Humidity;BMP_temperature;BMP_pressure;BME280_temperature;BME280_humidity;BME280_pressure;Samples;Min_cycle;Max_cycle;Signal;HPM_P1;HPM_P2
2022/05/03 00:00:07;;;;;;;19.20;10.13;;;;;;;;;;5035337;28;20041;-66
2022/05/03 00:02:51;;;;;;;20.85;10.15;;;;;;;;;;5036517;28;20037;-66
2022/05/03 00:05:31;;;;;;;19.77;9.52;;;;;;;;;;5042902;28;20041;-66
2022/05/03 00:08:35;;;;;;;19.33;9.55;;;;;;;;;;5028769;28;20064;-66
2022/05/03 00:11:24;;;;;;;26.75;10.25;;;;;;;;;;4990654;28;20038;-66
2022/05/03 00:13:54;;;;;;;21.23;9.98;;;;;;;;;;5039273;28;20774;-66
2022/05/03 00:16:21;;;;;;;23.27;10.60;;;;;;;;;;5046265;28;20041;-66
2022/05/03 00:18:47;;;;;;;18.08;9.88;;;;;;;;;;5035070;28;20028;-66
2022/05/03 00:21:13;;;;;;;23.15;11.00;;;;;;;;;;5040078;28;20040;-66
2022/05/03 00:23:38;;;;;;;21.05;9.25;;;;;;;;;;5045951;28;20041;-66
2022/05/03 00:26:05;;;;;;;20.00;10.07;;;;;;;;;;5046868;28;20041;-66
2022/05/03 00:28:30;;;;;;;18.30;9.15;;;;;;;;;;5036904;28;20041;-66
2022/05/03 00:30:56;;;;;;;21.13;9.52;;;;;;;;;;5034242;28;20043;-66
2022/05/03 00:33:22;;;;;;;20.23;9.90;;;;;;;;;;5028047;28;20594;-66
2022/05/03 00:35:49;;;;;;;23.42;11.43;;;;;;;;;;5029517;28;20627;-66
2022/05/03 00:38:15;;;;;;;22.17;10.60;;;;;;;;;;5031437;28;20033;-66
2022/05/03 00:40:47;;;;;;;22.05;10.77;;;;;;;;;;5032494;28;20049;-66
2022/05/03 00:43:30;;;;;;;21.92;10.75;;;;;;;;;;5027471;28;20040;-66
2022/05/03 00:46:02;;;;;;;;;;;;;;;;;;5027909;28;20038;-66
2022/05/03 00:48:34;;;;;;;18.58;9.82;;;;;;;;;;5027618;28;19909;-66
2022/05/03 00:51:12;;;;;;;21.10;9.77;;;;;;;;;;5043084;28;20030;-66
2022/05/03 00:54:23;;;;;;;19.23;10.40;;;;;;;;;;5035610;28;20033;-66
2022/05/03 00:57:10;;;;;;;18.63;9.75;;;;;;;;;;4973394;28;20038;-66
2022/05/03 00:59:56;;;;;;;19.88;10.02;;;;;;;;;;5042446;28;20179;-66
2022/05/03 01:02:33;;;;;;;20.08;9.38;;;;;;;;;;5045121;28;20120;-66
2022/05/03 01:05:01;;;;;;;18.52;9.10;;;;;;;;;;5043365;28;20048;-66
2022/05/03 01:07:34;;;;;;;18.13;8.38;;;;;;;;;;5033487;28;20534;-66
2022/05/03 01:10:05;;;;;;;17.20;8.30;;;;;;;;;;5046943;28;20033;-66
2022/05/03 01:12:49;;;;;;;16.33;8.27;;;;;;;;;;5027897;28;20032;-66
2022/05/03 01:15:25;;;;;;;15.20;8.05;;;;;;;;;;5036803;28;20020;-68
2022/05/03 01:18:08;;;;;;;15.95;8.50;;;;;;;;;;5045590;28;20453;-68
2022/05/03 01:20:36;;;;;;;16.42;8.40;;;;;;;;;;5040292;28;20457;-68
2022/05/03 01:23:43;;;;;;;15.45;7.30;;;;;;;;;;5040509;28;20095;-69
2022/05/03 01:26:27;;;;;;;14.32;7.65;;;;;;;;;;5046385;28;20071;-69
2022/05/03 01:29:06;;;;;;;15.82;8.15;;;;;;;;;;5036361;28;20029;-68
2022/05/03 01:31:32;;;;;;;16.65;8.45;;;;;;;;;;5047765;28;20044;-66
2022/05/03 01:34:00;;;;;;;18.20;8.60;;;;;;;;;;5046386;28;20036;-68
2022/05/03 01:36:56;;;;;;;15.13;7.93;;;;;;;;;;5047298;28;20033;-68
2022/05/03 01:39:31;;;;;;;17.48;8.65;;;;;;;;;;5045900;28;20114;-68
2022/05/03 01:42:18;;;;;;;16.42;8.30;;;;;;;;;;5047101;28;20419;-68
2022/05/03 01:44:49;;;;;;;19.33;8.38;;;;;;;;;;5028989;28;20072;-68
2022/05/03 01:47:20;;;;;;;18.50;8.80;;;;;;;;;;5044722;28;20041;-68
2022/05/03 01:50:20;;;;;;;18.40;8.88;;;;;;;;;;5037495;28;20041;-68
2022/05/03 01:53:01;;;;;;;16.92;8.98;;;;;;;;;;5047226;28;20120;-68
2022/05/03 01:55:36;;;;;;;20.23;8.85;;;;;;;;;;5037846;28;20036;-68
2022/05/03 01:58:55;;;;;;;14.48;8.48;;;;;;;;;;5031435;28;20053;-68
2022/05/03 02:01:39;;;;;;;15.55;7.93;;;;;;;;;;5024668;28;20081;-68
2022/05/03 02:04:29;;;;;;;20.08;9.15;;;;;;;;;;5017804;28;20636;-68
2022/05/03 02:07:31;;;;;;;17.83;8.75;;;;;;;;;;5034682;28;20116;-68
2022/05/03 02:10:21;;;;;;;21.80;9.63;;;;;;;;;;5044470;28;20040;-68
2022/05/03 02:12:53;;;;;;;22.63;9.63;;;;;;;;;;5046970;28;20036;-68
2022/05/03 02:15:48;;;;;;;23.55;10.00;;;;;;;;;;5045393;28;20051;-68
2022/05/03 02:18:17;;;;;;;21.42;10.48;;;;;;;;;;5035585;28;20040;-68
2022/05/03 02:21:04;;;;;;;20.33;9.30;;;;;;;;;;5040716;28;20072;-68
2022/05/03 02:23:48;;;;;;;19.55;9.85;;;;;;;;;;5031584;28;20597;-69
2022/05/03 02:26:22;;;;;;;20.70;9.98;;;;;;;;;;5027272;28;20057;-69
2022/05/03 02:28:55;;;;;;;24.20;10.70;;;;;;;;;;5034134;28;20044;-69
2022/05/03 02:31:40;;;;;;;19.67;10.00;;;;;;;;;;5031495;28;20082;-68
2022/05/03 02:34:27;;;;;;;20.02;10.00;;;;;;;;;;5027198;28;20390;-68
2022/05/03 02:37:06;;;;;;;20.77;10.07;;;;;;;;;;5032834;28;20059;-68
2022/05/03 02:39:31;;;;;;;23.02;10.48;;;;;;;;;;5046761;28;20131;-68
2022/05/03 02:41:59;;;;;;;19.50;10.10;;;;;;;;;;5031213;28;20661;-68
2022/05/03 02:44:28;;;;;;;20.10;9.90;;;;;;;;;;5041010;28;20037;-68
2022/05/03 02:47:02;;;;;;;22.23;10.68;;;;;;;;;;5034898;28;20557;-68
2022/05/03 02:49:37;;;;;;;20.38;11.00;;;;;;;;;;5028927;28;20041;-68
2022/05/03 02:52:40;;;;;;;22.73;11.30;;;;;;;;;;5046480;28;20556;-68
2022/05/03 02:55:27;;;;;;;21.90;11.25;;;;;;;;;;5025157;28;20061;-68
2022/05/03 02:58:10;;;;;;;23.58;11.20;;;;;;;;;;5036494;28;20037;-68
2022/05/03 03:04:24;;;;;;;26.63;12.45;;;;;;;;;;5010484;28;20549;-68
2022/05/03 03:06:54;;;;;;;24.98;12.30;;;;;;;;;;5026827;28;20053;-68
2022/05/03 03:09:54;;;;;;;22.42;12.23;;;;;;;;;;5039549;28;20021;-68
2022/05/03 03:12:39;;;;;;;26.15;13.20;;;;;;;;;;5029196;28;20133;-68
2022/05/03 03:15:07;;;;;;;24.98;12.95;;;;;;;;;;5044805;28;20617;-68
2022/05/03 03:17:38;;;;;;;29.00;12.40;;;;;;;;;;5034927;28;20045;-68
2022/05/03 03:20:09;;;;;;;27.13;12.23;;;;;;;;;;5045311;28;20654;-68
2022/05/03 03:22:47;;;;;;;27.13;12.10;;;;;;;;;;5034389;28;20037;-69
2022/05/03 03:25:14;;;;;;;24.92;12.05;;;;;;;;;;5042020;28;20033;-68
2022/05/03 03:27:42;;;;;;;23.60;11.88;;;;;;;;;;5046902;28;20091;-68
2022/05/03 03:30:10;;;;;;;28.60;11.63;;;;;;;;;;5031814;28;20021;-69
2022/05/03 03:32:40;;;;;;;21.70;10.65;;;;;;;;;;5035566;28;20041;-68
2022/05/03 03:35:06;;;;;;;21.60;10.30;;;;;;;;;;5037684;28;20033;-68
2022/05/03 03:37:36;;;;;;;22.67;10.05;;;;;;;;;;5040893;28;20493;-68
2022/05/03 03:40:05;;;;;;;20.70;9.95;;;;;;;;;;5049862;28;20060;-68
2022/05/03 03:42:31;;;;;;;23.10;10.43;;;;;;;;;;5036711;28;20067;-68
2022/05/03 03:45:02;;;;;;;26.27;10.90;;;;;;;;;;5045399;28;20056;-68
2022/05/03 03:47:30;;;;;;;25.77;11.35;;;;;;;;;;5048803;28;20040;-68
2022/05/03 03:49:57;;;;;;;25.42;11.30;;;;;;;;;;5049374;28;20035;-68
2022/05/03 03:52:25;;;;;;;22.58;11.32;;;;;;;;;;5050627;28;20629;-68
2022/05/03 03:54:51;;;;;;;25.30;12.38;;;;;;;;;;5040060;28;20045;-68
2022/05/03 03:57:20;;;;;;;24.77;11.57;;;;;;;;;;5030168;28;20041;-68
2022/05/03 03:59:45;;;;;;;27.50;12.32;;;;;;;;;;5035590;28;20048;-68
2022/05/03 04:02:11;;;;;;;25.33;12.65;;;;;;;;;;5042375;28;20120;-68
2022/05/03 04:04:37;;;;;;;26.52;12.93;;;;;;;;;;5030053;28;20085;-68
2022/05/03 04:07:04;;;;;;;23.52;12.02;;;;;;;;;;5047652;28;20422;-69
2022/05/03 04:09:30;;;;;;;23.92;12.68;;;;;;;;;;5044806;28;20061;-68
2022/05/03 04:11:55;;;;;;;25.80;12.00;;;;;;;;;;5028106;28;20511;-68
2022/05/03 04:14:21;;;;;;;24.63;11.48;;;;;;;;;;5045971;28;20045;-68
2022/05/03 04:16:47;;;;;;;23.65;11.60;;;;;;;;;;5046286;28;20033;-68
2022/05/03 04:19:12;;;;;;;27.58;12.63;;;;;;;;;;5032666;28;20124;-68
2022/05/03 04:21:39;;;;;;;22.65;11.15;;;;;;;;;;5048072;28;20107;-68
2022/05/03 04:24:05;;;;;;;22.08;11.43;;;;;;;;;;5040959;28;20120;-68
2022/05/03 04:26:31;;;;;;;24.15;11.10;;;;;;;;;;5048628;28;20075;-68
2022/05/03 04:28:57;;;;;;;24.13;11.27;;;;;;;;;;5041448;28;20479;-68
2022/05/03 04:31:26;;;;;;;23.23;11.57;;;;;;;;;;5028785;28;20127;-68
2022/05/03 04:33:52;;;;;;;21.52;11.02;;;;;;;;;;5033063;28;20035;-68
2022/05/03 04:36:18;;;;;;;21.33;10.45;;;;;;;;;;5048955;28;20134;-68
2022/05/03 04:38:43;;;;;;;21.52;10.60;;;;;;;;;;5048360;28;20125;-68
2022/05/03 04:41:08;;;;;;;18.27;9.75;;;;;;;;;;5035163;28;20511;-68
2022/05/03 04:43:34;;;;;;;17.58;9.35;;;;;;;;;;5029153;28;20030;-68
2022/05/03 04:46:00;;;;;;;21.02;9.73;;;;;;;;;;5030363;28;20047;-68
2022/05/03 04:48:25;;;;;;;21.67;9.77;;;;;;;;;;5047505;28;20033;-68
2022/05/03 04:50:50;;;;;;;22.63;10.23;;;;;;;;;;5030483;28;20601;-68
2022/05/03 04:53:16;;;;;;;23.38;11.15;;;;;;;;;;5035734;28;20044;-68
2022/05/03 04:55:42;;;;;;;26.77;12.48;;;;;;;;;;5028762;28;20038;-68
2022/05/03 04:58:08;;;;;;;21.80;11.20;;;;;;;;;;5028515;28;20116;-68
2022/05/03 05:00:33;;;;;;;25.27;11.88;;;;;;;;;;5036058;28;20503;-68
2022/05/03 05:02:59;;;;;;;23.23;11.52;;;;;;;;;;5044407;28;20482;-68
2022/05/03 05:05:24;;;;;;;27.73;12.20;;;;;;;;;;5039946;28;20041;-68
2022/05/03 05:07:50;;;;;;;28.73;13.05;;;;;;;;;;5036211;28;20093;-68
2022/05/03 05:10:24;;;;;;;29.60;12.60;;;;;;;;;;5047258;28;20501;-68
2022/05/03 05:12:50;;;;;;;33.05;13.00;;;;;;;;;;5046757;28;20472;-68
2022/05/03 05:15:16;;;;;;;23.60;11.15;;;;;;;;;;5044709;28;20499;-69
2022/05/03 05:17:41;;;;;;;29.23;13.13;;;;;;;;;;5047538;28;20033;-68
2022/05/03 05:20:07;;;;;;;23.83;12.70;;;;;;;;;;5041097;28;20125;-68
2022/05/03 05:22:32;;;;;;;25.75;12.30;;;;;;;;;;5034469;28;20037;-68
2022/05/03 05:24:58;;;;;;;26.55;12.73;;;;;;;;;;5030814;28;20033;-68
2022/05/03 05:27:23;;;;;;;23.98;12.30;;;;;;;;;;5028439;28;20116;-68
2022/05/03 05:29:49;;;;;;;30.40;13.13;;;;;;;;;;5033899;28;20037;-68
2022/05/03 05:32:14;;;;;;;31.25;13.48;;;;;;;;;;5033865;28;20541;-69
2022/05/03 05:34:39;;;;;;;25.45;12.27;;;;;;;;;;5027972;28;20585;-69
2022/05/03 05:37:05;;;;;;;25.83;11.75;;;;;;;;;;5028693;28;20079;-68
2022/05/03 05:39:31;;;;;;;23.98;12.13;;;;;;;;;;5038524;28;20021;-68
2022/05/03 05:41:58;;;;;;;23.23;11.82;;;;;;;;;;5043181;28;20016;-69
2022/05/03 05:44:24;;;;;;;24.55;12.07;;;;;;;;;;5035694;28;20040;-68
2022/05/03 05:46:49;;;;;;;22.35;12.05;;;;;;;;;;5035497;28;20588;-69
2022/05/03 05:49:15;;;;;;;25.58;11.68;;;;;;;;;;5043291;28;20029;-68
2022/05/03 05:51:40;;;;;;;22.70;10.90;;;;;;;;;;5037038;28;20044;-69
2022/05/03 05:54:05;;;;;;;20.88;10.75;;;;;;;;;;5030950;28;20049;-69
2022/05/03 05:56:31;;;;;;;23.95;10.20;;;;;;;;;;5035253;28;20048;-69
2022/05/03 05:58:57;;;;;;;24.98;11.13;;;;;;;;;;5035302;28;20537;-68
2022/05/03 06:01:26;;;;;;;22.92;10.95;;;;;;;;;;5039881;28;20037;-69
2022/05/03 06:03:52;;;;;;;24.42;11.32;;;;;;;;;;5031088;28;20099;-69
2022/05/03 06:06:18;;;;;;;19.58;10.73;;;;;;;;;;5030897;28;20111;-68
2022/05/03 06:08:43;;;;;;;22.50;12.25;;;;;;;;;;5033405;28;20029;-69
2022/05/03 06:11:09;;;;;;;24.85;12.35;;;;;;;;;;5037697;28;20040;-69
2022/05/03 06:13:35;;;;;;;26.42;12.38;;;;;;;;;;5028401;28;20609;-70
2022/05/03 06:16:08;;;;;;;24.60;11.60;;;;;;;;;;5030100;28;20457;-70
2022/05/03 06:18:34;;;;;;;21.08;11.18;;;;;;;;;;5035212;28;20032;-66
2022/05/03 06:21:00;;;;;;;23.50;10.95;;;;;;;;;;5031184;28;20033;-70
2022/05/03 06:23:25;;;;;;;20.17;10.15;;;;;;;;;;5035930;28;20070;-72
2022/05/03 06:25:51;;;;;;;19.48;9.70;;;;;;;;;;5040871;28;20068;-72
2022/05/03 06:28:16;;;;;;;18.60;8.95;;;;;;;;;;5033431;28;20127;-72
2022/05/03 06:30:41;;;;;;;16.05;8.60;;;;;;;;;;5028490;28;20029;-72
2022/05/03 06:33:08;;;;;;;16.80;8.27;;;;;;;;;;5036679;28;20025;-72
2022/05/03 06:35:33;;;;;;;17.20;7.93;;;;;;;;;;5034550;28;20430;-72
2022/05/03 06:37:58;;;;;;;15.48;8.60;;;;;;;;;;5029047;28;20523;-72
2022/05/03 06:40:24;;;;;;;16.08;8.63;;;;;;;;;;5034106;28;20060;-72
2022/05/03 06:42:49;;;;;;;15.40;8.55;;;;;;;;;;5031283;28;20067;-72
2022/05/03 06:45:15;;;;;;;16.83;8.65;;;;;;;;;;5035001;28;20962;-72
2022/05/03 06:47:40;;;;;;;17.27;9.10;;;;;;;;;;5043422;28;20906;-72
2022/05/03 06:50:08;;;;;;;19.42;8.27;;;;;;;;;;5033461;28;20033;-72
2022/05/03 06:52:55;;;;;;;16.23;9.07;;;;;;;;;;5045206;28;20044;-72
2022/05/03 06:55:21;;;;;;;15.52;7.88;;;;;;;;;;5044160;28;20060;-72
2022/05/03 06:57:47;;;;;;;15.32;8.15;;;;;;;;;;5030051;28;20037;-72
2022/05/03 07:00:14;;;;;;;14.07;7.85;;;;;;;;;;5038642;28;20029;-72
2022/05/03 07:02:39;;;;;;;14.65;6.82;;;;;;;;;;5044221;28;20099;-72
2022/05/03 07:05:05;;;;;;;14.35;7.05;;;;;;;;;;5044186;28;20037;-72
2022/05/03 07:07:31;;;;;;;13.85;7.43;;;;;;;;;;5055026;28;20041;-72
2022/05/03 07:09:57;;;;;;;14.80;7.15;;;;;;;;;;5035208;28;20457;-72
2022/05/03 07:12:22;;;;;;;16.50;7.28;;;;;;;;;;5041586;28;20033;-72
2022/05/03 07:14:47;;;;;;;16.35;7.28;;;;;;;;;;5037341;28;20045;-72
2022/05/03 07:22:45;;;;;;;13.38;7.22;;;;;;;;;;5031724;28;20129;-72
2022/05/03 07:25:10;;;;;;;12.77;7.10;;;;;;;;;;5037344;28;20132;-72
2022/05/03 07:27:36;;;;;;;13.68;6.93;;;;;;;;;;5038592;28;20819;-72
2022/05/03 07:30:01;;;;;;;13.50;7.72;;;;;;;;;;5036162;28;20025;-72
2022/05/03 07:32:26;;;;;;;13.27;6.60;;;;;;;;;;5039932;28;20033;-73
2022/05/03 07:34:52;;;;;;;14.13;6.50;;;;;;;;;;5039852;28;20037;-72
2022/05/03 07:37:17;;;;;;;10.27;5.80;;;;;;;;;;5038340;28;20045;-72
2022/05/03 07:39:43;;;;;;;13.07;5.93;;;;;;;;;;5037310;28;20025;-72
2022/05/03 07:42:08;;;;;;;11.75;6.22;;;;;;;;;;5038610;28;20029;-72
2022/05/03 07:44:33;;;;;;;13.43;6.32;;;;;;;;;;5038818;28;20065;-72
2022/05/03 07:46:59;;;;;;;14.07;6.93;;;;;;;;;;5040905;28;20515;-72
2022/05/03 07:49:24;;;;;;;12.45;5.93;;;;;;;;;;5040404;28;20167;-73
2022/05/03 07:51:49;;;;;;;9.60;5.72;;;;;;;;;;5035210;28;20617;-71
2022/05/03 07:54:15;;;;;;;10.45;5.68;;;;;;;;;;5040101;28;20735;-72
2022/05/03 07:56:40;;;;;;;10.02;5.43;;;;;;;;;;5040385;28;20090;-72
2022/05/03 07:59:09;;;;;;;10.05;5.97;;;;;;;;;;5034831;28;20048;-72
2022/05/03 08:01:35;;;;;;;10.90;5.97;;;;;;;;;;5036512;28;20044;-72
2022/05/03 08:04:00;;;;;;;12.60;5.93;;;;;;;;;;5035625;28;20071;-72
2022/05/03 08:06:27;;;;;;;11.32;5.50;;;;;;;;;;5038705;28;20080;-72
2022/05/03 08:08:52;;;;;;;8.90;5.20;;;;;;;;;;5034633;28;20527;-72
2022/05/03 08:11:18;;;;;;;10.10;5.97;;;;;;;;;;5035290;28;20036;-72
2022/05/03 08:13:45;;;;;;;9.40;5.72;;;;;;;;;;5028021;28;20037;-72
2022/05/03 08:16:18;;;;;;;13.90;6.47;;;;;;;;;;5035236;28;20087;-72
2022/05/03 08:18:44;;;;;;;12.02;5.95;;;;;;;;;;5040397;28;20019;-72
2022/05/03 08:21:11;;;;;;;12.80;6.50;;;;;;;;;;5037232;28;20731;-72
2022/05/03 08:23:37;;;;;;;9.77;5.70;;;;;;;;;;5035876;28;20037;-72
2022/05/03 08:26:02;;;;;;;10.27;5.38;;;;;;;;;;5035404;28;20037;-72
2022/05/03 08:28:28;;;;;;;10.90;5.60;;;;;;;;;;5043380;28;20051;-72
2022/05/03 08:30:53;;;;;;;11.70;6.38;;;;;;;;;;5038550;28;20395;-72
2022/05/03 08:33:18;;;;;;;11.25;5.57;;;;;;;;;;5040092;28;20502;-72
2022/05/03 08:35:44;;;;;;;10.68;6.13;;;;;;;;;;5042178;28;20029;-72
2022/05/03 08:43:38;;;;;;;9.77;5.53;;;;;;;;;;5038623;28;20056;-72
2022/05/03 08:46:06;;;;;;;9.77;5.80;;;;;;;;;;5042331;28;20057;-72
2022/05/03 08:48:34;;;;;;;10.52;5.47;;;;;;;;;;5035828;28;20031;-72
2022/05/03 08:51:00;;;;;;;10.50;6.32;;;;;;;;;;5036538;28;20490;-72
2022/05/03 08:53:27;;;;;;;11.82;6.80;;;;;;;;;;5037317;28;20037;-72
2022/05/03 08:55:53;;;;;;;13.77;6.45;;;;;;;;;;5037747;28;20044;-72
2022/05/03 08:58:19;;;;;;;11.50;6.68;;;;;;;;;;5039479;28;20038;-72
2022/05/03 09:00:45;;;;;;;12.20;6.50;;;;;;;;;;5033676;28;20049;-72
2022/05/03 09:03:12;;;;;;;13.57;6.47;;;;;;;;;;5032233;28;20116;-72
2022/05/03 09:05:39;;;;;;;13.23;6.30;;;;;;;;;;5038033;28;20059;-72
2022/05/03 09:08:08;;;;;;;8.50;5.38;;;;;;;;;;5036425;28;20037;-72
2022/05/03 09:10:36;;;;;;;10.43;6.00;;;;;;;;;;5029967;28;20037;-72
2022/05/03 09:13:22;;;;;;;11.45;6.30;;;;;;;;;;5039471;28;20136;-72
2022/05/03 09:15:51;;;;;;;11.00;5.93;;;;;;;;;;5032248;28;20047;-72
2022/05/03 09:18:31;;;;;;;12.10;6.03;;;;;;;;;;5035889;28;20021;-72
2022/05/03 09:23:47;;;;;;;11.18;6.03;;;;;;;;;;5038087;28;20044;-72
2022/05/03 09:26:16;;;;;;;13.02;6.32;;;;;;;;;;5035359;28;20038;-72
2022/05/03 09:28:50;;;;;;;10.90;5.22;;;;;;;;;;5036823;28;20048;-72
2022/05/03 09:31:35;;;;;;;9.68;5.10;;;;;;;;;;5038270;28;20025;-73
2022/05/03 09:34:02;;;;;;;13.75;6.22;;;;;;;;;;5036401;28;20674;-72
2022/05/03 09:36:28;;;;;;;12.15;6.25;;;;;;;;;;5032786;28;20064;-72
2022/05/03 09:38:55;;;;;;;9.65;5.72;;;;;;;;;;5034556;28;20076;-72
2022/05/03 09:41:21;;;;;;;10.80;5.03;;;;;;;;;;5037445;28;20163;-69
2022/05/03 09:44:03;;;;;;;10.82;6.45;;;;;;;;;;5039113;28;20112;-69
2022/05/03 09:46:29;;;;;;;13.90;6.28;;;;;;;;;;5036463;28;20530;-70
2022/05/03 09:48:55;;;;;;;12.07;6.47;;;;;;;;;;5038177;28;20033;-69
2022/05/03 09:51:22;;;;;;;11.27;6.45;;;;;;;;;;5033122;28;20022;-69
2022/05/03 09:53:58;;;;;;;10.20;5.00;;;;;;;;;;5039693;28;20030;-70
2022/05/03 09:56:26;;;;;;;12.00;5.38;;;;;;;;;;5029544;28;20123;-70
2022/05/03 09:58:57;;;;;;;12.57;6.10;;;;;;;;;;5034846;28;20036;-70
2022/05/03 10:01:23;;;;;;;9.23;5.35;;;;;;;;;;5030169;28;20041;-69
2022/05/03 10:03:49;;;;;;;14.30;6.43;;;;;;;;;;5037931;28;20086;-69
2022/05/03 10:06:15;;;;;;;9.95;5.65;;;;;;;;;;5030414;28;20017;-69
2022/05/03 10:08:41;;;;;;;10.50;5.53;;;;;;;;;;5035390;28;20395;-70
2022/05/03 10:11:07;;;;;;;10.82;5.78;;;;;;;;;;5034549;28;20033;-70
2022/05/03 10:13:32;;;;;;;11.23;6.20;;;;;;;;;;5032802;28;20029;-70
2022/05/03 10:21:36;;;;;;;9.32;5.10;;;;;;;;;;5033323;28;20088;-70
2022/05/03 10:24:09;;;;;;;8.55;5.00;;;;;;;;;;5034224;28;20116;-70
2022/05/03 10:27:05;;;;;;;8.13;4.63;;;;;;;;;;5039039;28;20356;-70
2022/05/03 10:29:37;;;;;;;8.50;4.78;;;;;;;;;;5039212;28;20411;-70
2022/05/03 10:32:05;;;;;;;7.95;4.60;;;;;;;;;;5039734;28;20061;-70
2022/05/03 10:34:40;;;;;;;9.60;5.65;;;;;;;;;;5036271;28;20030;-70
2022/05/03 10:37:16;;;;;;;8.77;5.15;;;;;;;;;;5037284;28;20076;-70
2022/05/03 10:39:51;;;;;;;10.25;5.82;;;;;;;;;;5041423;28;20403;-70
2022/05/03 10:42:20;;;;;;;8.68;5.28;;;;;;;;;;5038522;28;20444;-70
2022/05/03 10:44:52;;;;;;;14.23;4.85;;;;;;;;;;5039458;28;20033;-70
2022/05/03 10:47:38;;;;;;;10.45;4.00;;;;;;;;;;5036371;28;20052;-70
2022/05/03 10:50:13;;;;;;;7.20;4.07;;;;;;;;;;5036661;28;20048;-70
2022/05/03 10:52:59;;;;;;;7.63;4.75;;;;;;;;;;5038305;28;20041;-70
2022/05/03 10:55:28;;;;;;;9.52;4.57;;;;;;;;;;5040169;28;20087;-70
2022/05/03 10:58:19;;;;;;;7.82;4.32;;;;;;;;;;5034417;28;20041;-70
2022/05/03 11:01:05;;;;;;;9.30;5.13;;;;;;;;;;5032722;28;20041;-70
2022/05/03 11:03:33;;;;;;;9.70;4.90;;;;;;;;;;5033851;28;20045;-70
2022/05/03 11:06:21;;;;;;;11.45;5.13;;;;;;;;;;5037740;28;20498;-70
2022/05/03 11:11:43;;;;;;;;;;;;;;;;;;5035127;28;20052;-69
2022/05/03 11:14:21;;;;;;;7.93;4.63;;;;;;;;;;5053089;28;19925;-70
2022/05/03 11:17:03;;;;;;;7.57;4.55;;;;;;;;;;5041953;28;20032;-70
2022/05/03 11:19:29;;;;;;;8.50;5.00;;;;;;;;;;5032442;28;20051;-70
2022/05/03 11:21:55;;;;;;;13.13;5.65;;;;;;;;;;5032803;28;20533;-70
2022/05/03 11:24:24;;;;;;;11.35;5.80;;;;;;;;;;5031686;28;20029;-70
2022/05/03 11:26:55;;;;;;;16.38;5.82;;;;;;;;;;5038565;28;20107;-70
2022/05/03 11:29:25;;;;;;;7.50;4.53;;;;;;;;;;5033239;28;20411;-70
2022/05/03 11:31:51;;;;;;;11.68;6.38;;;;;;;;;;5031492;28;21448;-70
2022/05/03 11:34:18;;;;;;;12.23;5.88;;;;;;;;;;5037118;28;20045;-70
2022/05/03 11:36:46;;;;;;;11.52;6.43;;;;;;;;;;5032027;28;20051;-70
2022/05/03 11:39:13;;;;;;;20.92;7.80;;;;;;;;;;5039467;28;20104;-70
2022/05/03 11:41:39;;;;;;;10.93;6.80;;;;;;;;;;5034402;28;20399;-70
2022/05/03 11:44:04;;;;;;;10.43;6.70;;;;;;;;;;5039385;28;20044;-70
2022/05/03 11:46:29;;;;;;;12.60;6.88;;;;;;;;;;5034740;28;20029;-70
2022/05/03 11:49:01;;;;;;;10.43;6.00;;;;;;;;;;5039905;28;20461;-70
2022/05/03 11:57:11;;;;;;;11.98;6.38;;;;;;;;;;5037066;28;20537;-70
2022/05/03 11:59:41;;;;;;;11.82;7.45;;;;;;;;;;5041525;28;20033;-70
2022/05/03 12:02:21;;;;;;;14.00;8.13;;;;;;;;;;5042022;28;20040;-70
2022/05/03 12:05:04;;;;;;;12.85;7.85;;;;;;;;;;5039220;28;20066;-70
2022/05/03 12:07:43;;;;;;;16.13;7.60;;;;;;;;;;5029918;28;20038;-70
2022/05/03 12:10:29;;;;;;;12.65;8.20;;;;;;;;;;5031890;28;20112;-70
2022/05/03 12:13:14;;;;;;;14.40;8.98;;;;;;;;;;5032585;28;20033;-70
2022/05/03 12:15:47;;;;;;;12.73;8.35;;;;;;;;;;5028363;28;20029;-70
2022/05/03 12:18:39;;;;;;;11.57;6.20;;;;;;;;;;5038814;28;20036;-70
2022/05/03 12:21:22;;;;;;;11.80;6.85;;;;;;;;;;5035323;28;20177;-70
2022/05/03 12:23:49;;;;;;;6.95;5.05;;;;;;;;;;5039877;28;20445;-70
2022/05/03 12:26:33;;;;;;;8.45;5.63;;;;;;;;;;5034544;28;20056;-70
2022/05/03 12:29:00;;;;;;;9.82;6.40;;;;;;;;;;5037649;28;20040;-70
2022/05/03 12:31:35;;;;;;;12.18;7.78;;;;;;;;;;5034345;28;20034;-70
2022/05/03 12:34:04;;;;;;;14.77;8.15;;;;;;;;;;5034237;28;20037;-69
2022/05/03 12:36:37;;;;;;;12.57;7.68;;;;;;;;;;5039627;28;20067;-66
2022/05/03 12:39:19;;;;;;;9.00;6.57;;;;;;;;;;5036853;28;20044;-68
2022/05/03 12:41:52;;;;;;;9.23;6.20;;;;;;;;;;5035342;28;20052;-68
2022/05/03 12:44:19;;;;;;;10.50;7.07;;;;;;;;;;5031064;28;20033;-68
2022/05/03 12:46:44;;;;;;;10.77;6.22;;;;;;;;;;5034206;28;20163;-68
2022/05/03 12:49:12;;;;;;;9.18;6.38;;;;;;;;;;5041204;28;20120;-68
2022/05/03 12:51:40;;;;;;;11.02;7.28;;;;;;;;;;5032460;28;20021;-68
2022/05/03 12:54:07;;;;;;;11.32;7.97;;;;;;;;;;5038436;28;20031;-68
2022/05/03 12:59:17;;;;;;;10.07;7.40;;;;;;;;;;5036273;28;20247;-68
2022/05/03 13:01:46;;;;;;;11.27;7.93;;;;;;;;;;5036236;28;20052;-68
2022/05/03 13:04:12;;;;;;;10.30;8.05;;;;;;;;;;5042542;28;20033;-68
2022/05/03 13:06:38;;;;;;;13.45;9.95;;;;;;;;;;5031763;28;20419;-68
2022/05/03 13:09:03;;;;;;;19.55;10.00;;;;;;;;;;5040525;28;20028;-68
2022/05/03 13:11:30;;;;;;;16.17;9.88;;;;;;;;;;5036516;28;20037;-68
2022/05/03 13:13:55;;;;;;;15.60;10.40;;;;;;;;;;5042878;28;20101;-68
2022/05/03 13:16:20;;;;;;;14.10;9.38;;;;;;;;;;5039886;28;20032;-68
2022/05/03 13:18:46;;;;;;;12.55;8.75;;;;;;;;;;5033834;28;20101;-68
2022/05/03 13:21:11;;;;;;;14.80;9.90;;;;;;;;;;5039071;28;20401;-69
2022/05/03 13:23:36;;;;;;;15.05;9.82;;;;;;;;;;5028100;28;20183;-69
2022/05/03 13:26:02;;;;;;;14.02;9.25;;;;;;;;;;5034225;28;20041;-67
2022/05/03 13:28:28;;;;;;;12.55;8.23;;;;;;;;;;5046213;28;20194;-69
2022/05/03 13:30:54;;;;;;;11.68;8.05;;;;;;;;;;5046701;28;20033;-68
2022/05/03 13:33:20;;;;;;;13.95;9.27;;;;;;;;;;5041042;28;20653;-72
2022/05/03 13:41:13;;;;;;;10.70;8.25;;;;;;;;;;5045595;28;20481;-68
2022/05/03 13:43:38;;;;;;;11.70;8.75;;;;;;;;;;5045763;28;20033;-68
2022/05/03 13:46:04;;;;;;;13.75;9.75;;;;;;;;;;5040441;28;20437;-69
2022/05/03 13:48:29;;;;;;;13.02;9.82;;;;;;;;;;5044882;28;20021;-69
2022/05/03 13:50:54;;;;;;;12.48;9.48;;;;;;;;;;5040606;28;20031;-68
2022/05/03 13:53:20;;;;;;;12.40;10.57;;;;;;;;;;5037546;28;20064;-69
2022/05/03 13:55:45;;;;;;;11.30;9.60;;;;;;;;;;5037513;28;20108;-68
2022/05/03 13:58:11;;;;;;;12.50;10.05;;;;;;;;;;5036998;28;20044;-69
2022/05/03 14:00:38;;;;;;;11.20;9.43;;;;;;;;;;5033990;28;20542;-68
2022/05/03 14:03:07;;;;;;;14.55;10.40;;;;;;;;;;5039685;28;20021;-69
2022/05/03 14:05:32;;;;;;;12.15;9.65;;;;;;;;;;5038271;28;20074;-69
2022/05/03 14:07:57;;;;;;;12.70;9.25;;;;;;;;;;5038280;28;20090;-69
2022/05/03 14:10:23;;;;;;;12.23;9.73;;;;;;;;;;5040337;28;20064;-69
2022/05/03 14:12:49;;;;;;;12.98;9.32;;;;;;;;;;5039056;28;20418;-69
2022/05/03 14:15:14;;;;;;;14.25;9.70;;;;;;;;;;5041294;28;20048;-69
2022/05/03 14:17:41;;;;;;;12.50;10.23;;;;;;;;;;5032295;28;20033;-69
2022/05/03 14:20:07;;;;;;;13.75;9.82;;;;;;;;;;5037961;28;20037;-70
2022/05/03 14:22:33;;;;;;;17.17;10.23;;;;;;;;;;5033765;28;20199;-69
2022/05/03 14:24:58;;;;;;;14.20;10.68;;;;;;;;;;5040888;28;20033;-69
2022/05/03 14:27:23;;;;;;;16.08;11.10;;;;;;;;;;5033090;28;20041;-69
2022/05/03 14:29:49;;;;;;;14.05;10.20;;;;;;;;;;5043372;28;20045;-69
2022/05/03 14:32:15;;;;;;;13.20;10.70;;;;;;;;;;5032849;28;20122;-69
2022/05/03 14:34:40;;;;;;;14.63;10.77;;;;;;;;;;5031379;28;20522;-69
2022/05/03 14:37:06;;;;;;;14.65;11.35;;;;;;;;;;5026573;28;20080;-69
2022/05/03 14:39:31;;;;;;;14.80;10.95;;;;;;;;;;5037451;28;20036;-68
2022/05/03 14:41:59;;;;;;;16.88;11.73;;;;;;;;;;5036143;28;20018;-67
2022/05/03 14:44:24;;;;;;;15.60;11.27;;;;;;;;;;5040054;28;20584;-70
2022/05/03 14:46:50;;;;;;;16.83;11.57;;;;;;;;;;5042408;28;20033;-70
2022/05/03 14:49:15;;;;;;;32.75;12.55;;;;;;;;;;5041286;28;20414;-70
2022/05/03 14:51:40;;;;;;;16.23;10.55;;;;;;;;;;5035721;28;20402;-69
2022/05/03 14:54:06;;;;;;;18.33;12.68;;;;;;;;;;5044770;28;20536;-70
2022/05/03 15:04:43;;;;;;;15.45;11.38;;;;;;;;;;5031271;28;20040;-69
2022/05/03 15:07:09;;;;;;;15.65;10.90;;;;;;;;;;5035894;28;20417;-71
2022/05/03 15:09:35;;;;;;;16.05;11.02;;;;;;;;;;5036709;28;20033;-71
2022/05/03 15:12:00;;;;;;;16.02;10.70;;;;;;;;;;5044372;28;20147;-71
2022/05/03 15:14:26;;;;;;;16.70;11.10;;;;;;;;;;5037316;28;20041;-71
2022/05/03 15:16:51;;;;;;;17.70;12.15;;;;;;;;;;5041805;28;20037;-71
2022/05/03 15:19:17;;;;;;;18.20;12.10;;;;;;;;;;5041365;28;20425;-71
2022/05/03 15:21:42;;;;;;;19.23;12.88;;;;;;;;;;5044300;28;20013;-71
2022/05/03 15:26:51;;;;;;;14.95;11.15;;;;;;;;;;5034707;28;20126;-71
2022/05/03 15:29:16;;;;;;;19.20;12.27;;;;;;;;;;5037147;28;20453;-72
2022/05/03 15:31:43;;;;;;;15.90;11.30;;;;;;;;;;5036366;28;20071;-72
2022/05/03 15:34:09;;;;;;;18.30;13.02;;;;;;;;;;5038579;28;20669;-72